aviador You're here:

CYZV Decoded Metar

SEPT-ILES in QC, CANADA
Report Time2018-01-19 10:00:00
UTC Time2018-01-19 11:08:54
Flight Rules Old
Wind350° at 06 kt
W.Decomp.*RWY 31: 3.0 kt HW 5.2 kt RCW
RWY 09: 1.0 kt HW 5.9 kt LCW
W.Rank350° ranks 20
Current wind is below 350° avg. (6.9)
Visibility9999 m
Phenomena:N/A
Clouds:N/A
Expected CloudBase > 1,200 ft AGL from Temp-Dew spread
CeilingNone
Temp-20°C (ISA -35)
Dew Point-23°C (77% RH)
AAT-25.8°C
QNH1010 hPa
Density Alt-4,137 ft
Elevation180 ft
Report Wrong Elevation
Raw Report
CYZV 191000Z 35006KT 15SM SKC M20/M23 A2983 RMK SLP110=

Extra information for CYZV:More info

Metar Taf Metar & Taf Last 4 Metars F.Rules Stats Wind Profile Meteogram Temp Stats Airport Information Weather charts Add Link Nearby VenuesMetar ALERT Operation Metar Decoded Social comments